sensor_id;sensor_type;location;lat;lon;timestamp;P1;durP1;ratioP1;P2;durP2;ratioP2
63018;SDS011;49105;46.046;10.760;2023-07-13T00:02:00;9.18;;;8.82;;
63018;SDS011;49105;46.046;10.760;2023-07-13T00:04:26;8.88;;;8.55;;
63018;SDS011;49105;46.046;10.760;2023-07-13T00:06:52;8.45;;;8.15;;
63018;SDS011;49105;46.046;10.760;2023-07-13T00:09:21;8.77;;;8.48;;
63018;SDS011;49105;46.046;10.760;2023-07-13T00:11:50;8.82;;;8.52;;
63018;SDS011;49105;46.046;10.760;2023-07-13T00:14:23;8.98;;;8.68;;
63018;SDS011;49105;46.046;10.760;2023-07-13T00:16:59;8.52;;;8.20;;
63018;SDS011;49105;46.046;10.760;2023-07-13T00:19:31;7.97;;;7.68;;
63018;SDS011;49105;46.046;10.760;2023-07-13T00:21:57;7.72;;;7.43;;
63018;SDS011;49105;46.046;10.760;2023-07-13T00:24:22;8.63;;;8.32;;
63018;SDS011;49105;46.046;10.760;2023-07-13T00:26:48;8.30;;;8.00;;
63018;SDS011;49105;46.046;10.760;2023-07-13T00:29:17;9.18;;;8.88;;
63018;SDS011;49105;46.046;10.760;2023-07-13T00:31:43;8.38;;;8.07;;
63018;SDS011;49105;46.046;10.760;2023-07-13T00:34:12;8.10;;;7.80;;
63018;SDS011;49105;46.046;10.760;2023-07-13T00:36:47;9.15;;;8.85;;
63018;SDS011;49105;46.046;10.760;2023-07-13T00:39:12;9.13;;;8.82;;
63018;SDS011;49105;46.046;10.760;2023-07-13T00:41:44;8.38;;;8.07;;
63018;SDS011;49105;46.046;10.760;2023-07-13T00:44:17;8.13;;;7.82;;
63018;SDS011;49105;46.046;10.760;2023-07-13T00:46:50;8.40;;;8.10;;
63018;SDS011;49105;46.046;10.760;2023-07-13T00:49:16;7.80;;;7.50;;
63018;SDS011;49105;46.046;10.760;2023-07-13T00:51:49;6.85;;;6.65;;
63018;SDS011;49105;46.046;10.760;2023-07-13T00:54:26;6.20;;;6.00;;
63018;SDS011;49105;46.046;10.760;2023-07-13T00:57:07;7.00;;;6.70;;
63018;SDS011;49105;46.046;10.760;2023-07-13T00:59:38;5.80;;;5.60;;
63018;SDS011;49105;46.046;10.760;2023-07-13T01:02:07;6.25;;;5.97;;
63018;SDS011;49105;46.046;10.760;2023-07-13T01:04:38;5.57;;;5.38;;
63018;SDS011;49105;46.046;10.760;2023-07-13T01:07:10;5.90;;;5.70;;
63018;SDS011;49105;46.046;10.760;2023-07-13T01:09:43;7.22;;;6.55;;
63018;SDS011;49105;46.046;10.760;2023-07-13T01:12:10;6.00;;;5.80;;
63018;SDS011;49105;46.046;10.760;2023-07-13T01:14:36;6.38;;;6.18;;
63018;SDS011;49105;46.046;10.760;2023-07-13T01:17:01;6.20;;;6.00;;
63018;SDS011;49105;46.046;10.760;2023-07-13T01:19:39;6.32;;;6.13;;
63018;SDS011;49105;46.046;10.760;2023-07-13T01:22:14;6.30;;;6.10;;
63018;SDS011;49105;46.046;10.760;2023-07-13T01:24:43;6.40;;;6.18;;
63018;SDS011;49105;46.046;10.760;2023-07-13T01:27:14;6.68;;;6.38;;
63018;SDS011;49105;46.046;10.760;2023-07-13T01:29:43;5.97;;;5.78;;
63018;SDS011;49105;46.046;10.760;2023-07-13T01:32:21;6.03;;;5.82;;
63018;SDS011;49105;46.046;10.760;2023-07-13T01:34:55;5.90;;;5.70;;
63018;SDS011;49105;46.046;10.760;2023-07-13T01:37:29;6.32;;;6.13;;
63018;SDS011;49105;46.046;10.760;2023-07-13T01:40:01;5.90;;;5.70;;
63018;SDS011;49105;46.046;10.760;2023-07-13T01:42:28;5.70;;;5.50;;
63018;SDS011;49105;46.046;10.760;2023-07-13T01:44:54;5.57;;;5.38;;
63018;SDS011;49105;46.046;10.760;2023-07-13T01:47:19;5.40;;;5.20;;
63018;SDS011;49105;46.046;10.760;2023-07-13T01:49:53;5.80;;;5.60;;
63018;SDS011;49105;46.046;10.760;2023-07-13T01:52:20;6.50;;;6.30;;
63018;SDS011;49105;46.046;10.760;2023-07-13T01:54:45;6.45;;;6.15;;
63018;SDS011;49105;46.046;10.760;2023-07-13T01:57:17;6.15;;;5.95;;
63018;SDS011;49105;46.046;10.760;2023-07-13T01:59:46;5.93;;;5.72;;
63018;SDS011;49105;46.046;10.760;2023-07-13T02:02:11;6.20;;;6.00;;
63018;SDS011;49105;46.046;10.760;2023-07-13T02:04:46;6.30;;;6.10;;
63018;SDS011;49105;46.046;10.760;2023-07-13T02:07:17;6.30;;;6.10;;
63018;SDS011;49105;46.046;10.760;2023-07-13T02:09:52;5.95;;;5.75;;
63018;SDS011;49105;46.046;10.760;2023-07-13T02:12:23;6.30;;;6.10;;
63018;SDS011;49105;46.046;10.760;2023-07-13T02:14:48;5.85;;;5.65;;
63018;SDS011;49105;46.046;10.760;2023-07-13T02:17:20;6.47;;;6.28;;
63018;SDS011;49105;46.046;10.760;2023-07-13T02:19:46;6.40;;;6.20;;
63018;SDS011;49105;46.046;10.760;2023-07-13T02:22:18;7.03;;;6.82;;
63018;SDS011;49105;46.046;10.760;2023-07-13T02:24:44;6.13;;;5.93;;
63018;SDS011;49105;46.046;10.760;2023-07-13T02:27:09;6.03;;;5.82;;
63018;SDS011;49105;46.046;10.760;2023-07-13T02:29:35;6.00;;;5.80;;
63018;SDS011;49105;46.046;10.760;2023-07-13T02:32:07;6.57;;;6.38;;
63018;SDS011;49105;46.046;10.760;2023-07-13T02:34:35;6.90;;;6.70;;
63018;SDS011;49105;46.046;10.760;2023-07-13T02:37:01;6.30;;;6.10;;
63018;SDS011;49105;46.046;10.760;2023-07-13T02:39:36;6.70;;;6.50;;
63018;SDS011;49105;46.046;10.760;2023-07-13T02:42:10;7.00;;;6.80;;
63018;SDS011;49105;46.046;10.760;2023-07-13T02:44:36;6.70;;;6.50;;
63018;SDS011;49105;46.046;10.760;2023-07-13T02:47:07;6.30;;;6.10;;
63018;SDS011;49105;46.046;10.760;2023-07-13T02:49:33;6.60;;;6.40;;
63018;SDS011;49105;46.046;10.760;2023-07-13T02:51:58;6.80;;;6.60;;
63018;SDS011;49105;46.046;10.760;2023-07-13T02:54:32;6.75;;;6.55;;
63018;SDS011;49105;46.046;10.760;2023-07-13T02:57:04;6.13;;;5.93;;
63018;SDS011;49105;46.046;10.760;2023-07-13T02:59:30;6.18;;;5.97;;
63018;SDS011;49105;46.046;10.760;2023-07-13T03:02:05;6.43;;;6.22;;
63018;SDS011;49105;46.046;10.760;2023-07-13T03:04:38;6.40;;;6.20;;
63018;SDS011;49105;46.046;10.760;2023-07-13T03:07:11;7.10;;;6.80;;
63018;SDS011;49105;46.046;10.760;2023-07-13T03:09:44;6.18;;;5.97;;
63018;SDS011;49105;46.046;10.760;2023-07-13T03:12:10;6.70;;;6.50;;
63018;SDS011;49105;46.046;10.760;2023-07-13T03:14:35;7.07;;;6.88;;
63018;SDS011;49105;46.046;10.760;2023-07-13T03:17:13;6.68;;;6.47;;
63018;SDS011;49105;46.046;10.760;2023-07-13T03:19:38;6.75;;;6.55;;
63018;SDS011;49105;46.046;10.760;2023-07-13T03:22:13;6.70;;;6.50;;
63018;SDS011;49105;46.046;10.760;2023-07-13T03:24:43;6.70;;;6.50;;
63018;SDS011;49105;46.046;10.760;2023-07-13T03:27:19;6.27;;;6.07;;
63018;SDS011;49105;46.046;10.760;2023-07-13T03:29:47;6.00;;;5.80;;
63018;SDS011;49105;46.046;10.760;2023-07-13T03:32:22;6.40;;;6.20;;
63018;SDS011;49105;46.046;10.760;2023-07-13T03:34:47;6.05;;;5.85;;
63018;SDS011;49105;46.046;10.760;2023-07-13T03:37:13;6.15;;;5.85;;
63018;SDS011;49105;46.046;10.760;2023-07-13T03:39:47;5.75;;;5.55;;
63018;SDS011;49105;46.046;10.760;2023-07-13T03:42:13;5.78;;;5.57;;
63018;SDS011;49105;46.046;10.760;2023-07-13T03:44:39;6.30;;;6.10;;
63018;SDS011;49105;46.046;10.760;2023-07-13T03:47:14;6.40;;;6.20;;
63018;SDS011;49105;46.046;10.760;2023-07-13T03:49:43;6.60;;;6.40;;
63018;SDS011;49105;46.046;10.760;2023-07-13T03:52:19;6.50;;;6.30;;
63018;SDS011;49105;46.046;10.760;2023-07-13T03:54:45;6.20;;;6.00;;
63018;SDS011;49105;46.046;10.760;2023-07-13T03:57:14;6.25;;;6.05;;
63018;SDS011;49105;46.046;10.760;2023-07-13T03:59:39;6.18;;;5.97;;
63018;SDS011;49105;46.046;10.760;2023-07-13T04:02:17;5.90;;;5.70;;
63018;SDS011;49105;46.046;10.760;2023-07-13T04:04:42;6.18;;;5.97;;
63018;SDS011;49105;46.046;10.760;2023-07-13T04:07:14;5.70;;;5.50;;
63018;SDS011;49105;46.046;10.760;2023-07-13T04:09:43;5.68;;;5.47;;
63018;SDS011;49105;46.046;10.760;2023-07-13T04:15:36;5.50;;;5.30;;
63018;SDS011;49105;46.046;10.760;2023-07-13T04:18:10;6.00;;;5.80;;
63018;SDS011;49105;46.046;10.760;2023-07-13T04:20:36;5.80;;;5.60;;
63018;SDS011;49105;46.046;10.760;2023-07-13T04:23:01;5.88;;;5.68;;
63018;SDS011;49105;46.046;10.760;2023-07-13T04:25:27;5.50;;;5.30;;
63018;SDS011;49105;46.046;10.760;2023-07-13T04:27:59;5.80;;;5.60;;
63018;SDS011;49105;46.046;10.760;2023-07-13T04:30:25;5.38;;;5.18;;
63018;SDS011;49105;46.046;10.760;2023-07-13T04:32:54;5.25;;;5.07;;
63018;SDS011;49105;46.046;10.760;2023-07-13T04:35:19;4.80;;;4.70;;
63018;SDS011;49105;46.046;10.760;2023-07-13T04:37:57;5.55;;;5.35;;
63018;SDS011;49105;46.046;10.760;2023-07-13T04:40:23;4.80;;;4.70;;
63018;SDS011;49105;46.046;10.760;2023-07-13T04:42:58;4.90;;;4.80;;
63018;SDS011;49105;46.046;10.760;2023-07-13T04:45:30;5.03;;;4.82;;
63018;SDS011;49105;46.046;10.760;2023-07-13T04:47:56;5.25;;;5.05;;
63018;SDS011;49105;46.046;10.760;2023-07-13T04:50:22;4.90;;;4.80;;
63018;SDS011;49105;46.046;10.760;2023-07-13T04:52:50;4.80;;;4.70;;
63018;SDS011;49105;46.046;10.760;2023-07-13T04:55:17;4.97;;;4.88;;
63018;SDS011;49105;46.046;10.760;2023-07-13T04:57:53;5.63;;;5.22;;
63018;SDS011;49105;46.046;10.760;2023-07-13T05:00:30;5.40;;;5.10;;
63018;SDS011;49105;46.046;10.760;2023-07-13T05:03:05;5.18;;;5.05;;
63018;SDS011;49105;46.046;10.760;2023-07-13T05:05:31;5.03;;;4.93;;
63018;SDS011;49105;46.046;10.760;2023-07-13T05:08:06;5.30;;;5.10;;
63018;SDS011;49105;46.046;10.760;2023-07-13T05:10:35;4.90;;;4.80;;
63018;SDS011;49105;46.046;10.760;2023-07-13T05:13:13;5.30;;;5.10;;
63018;SDS011;49105;46.046;10.760;2023-07-13T05:15:38;5.10;;;4.90;;
63018;SDS011;49105;46.046;10.760;2023-07-13T05:18:04;5.20;;;5.00;;
63018;SDS011;49105;46.046;10.760;2023-07-13T05:20:32;5.38;;;5.18;;
63018;SDS011;49105;46.046;10.760;2023-07-13T05:22:58;5.45;;;5.25;;
63018;SDS011;49105;46.046;10.760;2023-07-13T05:25:32;4.47;;;4.38;;
63018;SDS011;49105;46.046;10.760;2023-07-13T05:28:07;5.13;;;5.00;;
63018;SDS011;49105;46.046;10.760;2023-07-13T05:30:46;5.50;;;5.30;;
63018;SDS011;49105;46.046;10.760;2023-07-13T05:33:12;6.00;;;5.80;;
63018;SDS011;49105;46.046;10.760;2023-07-13T05:35:38;5.97;;;5.78;;
63018;SDS011;49105;46.046;10.760;2023-07-13T05:38:03;5.85;;;5.65;;
63018;SDS011;49105;46.046;10.760;2023-07-13T05:40:38;6.10;;;5.90;;
63018;SDS011;49105;46.046;10.760;2023-07-13T05:43:03;6.30;;;6.10;;
63018;SDS011;49105;46.046;10.760;2023-07-13T05:45:29;5.30;;;5.10;;
63018;SDS011;49105;46.046;10.760;2023-07-13T05:48:03;5.90;;;5.70;;
63018;SDS011;49105;46.046;10.760;2023-07-13T05:53:56;5.43;;;5.22;;
63018;SDS011;49105;46.046;10.760;2023-07-13T05:58:48;5.32;;;5.03;;
63018;SDS011;49105;46.046;10.760;2023-07-13T06:01:14;3.90;;;3.80;;
63018;SDS011;49105;46.046;10.760;2023-07-13T06:03:40;4.05;;;3.95;;
63018;SDS011;49105;46.046;10.760;2023-07-13T06:06:07;4.20;;;4.10;;
63018;SDS011;49105;46.046;10.760;2023-07-13T06:08:37;5.30;;;4.75;;
63018;SDS011;49105;46.046;10.760;2023-07-13T06:11:17;3.75;;;3.65;;
63018;SDS011;49105;46.046;10.760;2023-07-13T06:16:11;3.70;;;3.60;;
63018;SDS011;49105;46.046;10.760;2023-07-13T06:18:37;3.80;;;3.70;;
63018;SDS011;49105;46.046;10.760;2023-07-13T06:21:14;3.70;;;3.60;;
63018;SDS011;49105;46.046;10.760;2023-07-13T06:23:42;4.10;;;4.00;;
63018;SDS011;49105;46.046;10.760;2023-07-13T06:26:17;4.10;;;4.00;;
63018;SDS011;49105;46.046;10.760;2023-07-13T06:28:47;4.07;;;3.97;;
63018;SDS011;49105;46.046;10.760;2023-07-13T06:31:22;5.45;;;5.03;;
63018;SDS011;49105;46.046;10.760;2023-07-13T06:33:50;4.80;;;4.60;;
63018;SDS011;49105;46.046;10.760;2023-07-13T06:36:25;4.80;;;4.70;;
63018;SDS011;49105;46.046;10.760;2023-07-13T06:38:53;5.30;;;5.10;;
63018;SDS011;49105;46.046;10.760;2023-07-13T06:41:28;5.05;;;4.85;;
63018;SDS011;49105;46.046;10.760;2023-07-13T06:44:05;5.30;;;5.10;;
63018;SDS011;49105;46.046;10.760;2023-07-13T06:46:40;4.60;;;4.50;;
63018;SDS011;49105;46.046;10.760;2023-07-13T06:49:07;4.72;;;4.53;;
63018;SDS011;49105;46.046;10.760;2023-07-13T06:51:33;4.65;;;4.45;;
63018;SDS011;49105;46.046;10.760;2023-07-13T06:54:08;4.47;;;4.28;;
63018;SDS011;49105;46.046;10.760;2023-07-13T06:56:46;4.22;;;4.13;;
63018;SDS011;49105;46.046;10.760;2023-07-13T06:59:11;4.30;;;4.20;;
63018;SDS011;49105;46.046;10.760;2023-07-13T07:01:40;4.50;;;4.30;;
63018;SDS011;49105;46.046;10.760;2023-07-13T07:04:14;4.90;;;4.70;;
63018;SDS011;49105;46.046;10.760;2023-07-13T07:06:40;5.43;;;5.15;;
63018;SDS011;49105;46.046;10.760;2023-07-13T07:09:05;5.50;;;5.28;;
63018;SDS011;49105;46.046;10.760;2023-07-13T07:11:31;5.10;;;4.90;;
63018;SDS011;49105;46.046;10.760;2023-07-13T07:13:56;4.70;;;4.60;;
63018;SDS011;49105;46.046;10.760;2023-07-13T07:16:22;4.55;;;4.45;;
63018;SDS011;49105;46.046;10.760;2023-07-13T07:18:49;5.18;;;4.93;;
63018;SDS011;49105;46.046;10.760;2023-07-13T07:21:15;4.50;;;4.30;;
63018;SDS011;49105;46.046;10.760;2023-07-13T07:23:40;5.25;;;5.07;;
63018;SDS011;49105;46.046;10.760;2023-07-13T07:26:16;4.22;;;4.13;;
63018;SDS011;49105;46.046;10.760;2023-07-13T07:28:48;4.65;;;4.47;;
63018;SDS011;49105;46.046;10.760;2023-07-13T07:31:22;4.50;;;4.40;;
63018;SDS011;49105;46.046;10.760;2023-07-13T07:33:57;4.15;;;4.05;;
63018;SDS011;49105;46.046;10.760;2023-07-13T07:36:32;5.63;;;5.43;;
63018;SDS011;49105;46.046;10.760;2023-07-13T07:39:04;4.90;;;4.70;;
63018;SDS011;49105;46.046;10.760;2023-07-13T07:41:36;4.70;;;4.60;;
63018;SDS011;49105;46.046;10.760;2023-07-13T07:44:02;5.22;;;5.03;;
63018;SDS011;49105;46.046;10.760;2023-07-13T07:46:28;4.63;;;4.53;;
63018;SDS011;49105;46.046;10.760;2023-07-13T07:48:57;4.40;;;4.30;;
63018;SDS011;49105;46.046;10.760;2023-07-13T07:53:56;4.93;;;4.63;;
63018;SDS011;49105;46.046;10.760;2023-07-13T07:56:34;4.05;;;3.95;;
63018;SDS011;49105;46.046;10.760;2023-07-13T07:58:59;4.97;;;4.78;;
63018;SDS011;49105;46.046;10.760;2023-07-13T08:01:25;5.15;;;4.65;;
63018;SDS011;49105;46.046;10.760;2023-07-13T08:03:50;4.68;;;4.47;;
63018;SDS011;49105;46.046;10.760;2023-07-13T08:06:16;4.80;;;4.60;;
63018;SDS011;49105;46.046;10.760;2023-07-13T09:44:56;3.45;;;3.35;;
63018;SDS011;49105;46.046;10.760;2023-07-13T09:47:37;3.33;;;3.22;;
63018;SDS011;49105;46.046;10.760;2023-07-13T09:50:14;2.80;;;2.75;;
63018;SDS011;49105;46.046;10.760;2023-07-13T09:52:56;3.00;;;2.90;;
63018;SDS011;49105;46.046;10.760;2023-07-13T09:57:51;2.45;;;2.45;;
63018;SDS011;49105;46.046;10.760;2023-07-13T10:00:22;2.45;;;2.45;;
63018;SDS011;49105;46.046;10.760;2023-07-13T10:02:58;2.60;;;2.50;;
63018;SDS011;49105;46.046;10.760;2023-07-13T10:08:50;2.65;;;2.55;;
63018;SDS011;49105;46.046;10.760;2023-07-13T10:14:02;3.63;;;3.33;;
63018;SDS011;49105;46.046;10.760;2023-07-13T10:16:45;2.85;;;2.75;;
63018;SDS011;49105;46.046;10.760;2023-07-13T10:19:31;3.40;;;3.20;;
63018;SDS011;49105;46.046;10.760;2023-07-13T10:22:14;2.30;;;2.30;;
63018;SDS011;49105;46.046;10.760;2023-07-13T10:28:03;2.83;;;2.72;;
63018;SDS011;49105;46.046;10.760;2023-07-13T10:30:38;2.22;;;2.22;;
63018;SDS011;49105;46.046;10.760;2023-07-13T10:33:13;3.33;;;3.23;;
63018;SDS011;49105;46.046;10.760;2023-07-13T10:35:41;2.20;;;2.20;;
63018;SDS011;49105;46.046;10.760;2023-07-13T10:47:21;2.63;;;2.53;;
63018;SDS011;49105;46.046;10.760;2023-07-13T10:49:49;2.80;;;2.70;;
63018;SDS011;49105;46.046;10.760;2023-07-13T10:52:44;2.92;;;2.83;;
63018;SDS011;49105;46.046;10.760;2023-07-13T10:58:12;2.50;;;2.50;;
63018;SDS011;49105;46.046;10.760;2023-07-13T11:03:54;2.72;;;2.63;;
63018;SDS011;49105;46.046;10.760;2023-07-13T11:06:36;2.33;;;2.30;;
63018;SDS011;49105;46.046;10.760;2023-07-13T11:22:44;2.10;;;2.10;;
63018;SDS011;49105;46.046;10.760;2023-07-13T11:27:52;2.30;;;2.30;;
63018;SDS011;49105;46.046;10.760;2023-07-13T11:30:47;2.30;;;2.30;;
63018;SDS011;49105;46.046;10.760;2023-07-13T11:36:21;2.30;;;2.30;;
63018;SDS011;49105;46.046;10.760;2023-07-13T11:38:56;2.40;;;2.30;;
63018;SDS011;49105;46.046;10.760;2023-07-13T11:41:35;2.60;;;2.50;;
63018;SDS011;49105;46.046;10.760;2023-07-13T11:44:34;2.30;;;2.30;;
63018;SDS011;49105;46.046;10.760;2023-07-13T11:47:10;2.38;;;2.20;;
63018;SDS011;49105;46.046;10.760;2023-07-13T11:49:43;2.45;;;2.35;;
63018;SDS011;49105;46.046;10.760;2023-07-13T11:52:22;2.10;;;2.10;;
63018;SDS011;49105;46.046;10.760;2023-07-13T11:54:55;2.20;;;2.20;;
63018;SDS011;49105;46.046;10.760;2023-07-13T12:00:33;2.50;;;2.50;;
63018;SDS011;49105;46.046;10.760;2023-07-13T12:02:56;3.00;;;2.90;;
63018;SDS011;49105;46.046;10.760;2023-07-13T12:05:24;2.80;;;2.70;;
63018;SDS011;49105;46.046;10.760;2023-07-13T12:07:50;3.33;;;3.13;;
63018;SDS011;49105;46.046;10.760;2023-07-13T12:10:24;2.83;;;2.72;;
63018;SDS011;49105;46.046;10.760;2023-07-13T12:12:58;2.40;;;2.40;;
63018;SDS011;49105;46.046;10.760;2023-07-13T12:15:36;3.70;;;3.53;;
63018;SDS011;49105;46.046;10.760;2023-07-13T12:21:38;3.47;;;3.20;;
63018;SDS011;49105;46.046;10.760;2023-07-13T12:24:14;5.07;;;3.58;;
63018;SDS011;49105;46.046;10.760;2023-07-13T12:26:42;2.80;;;2.70;;
63018;SDS011;49105;46.046;10.760;2023-07-13T12:29:17;3.50;;;3.40;;
63018;SDS011;49105;46.046;10.760;2023-07-13T12:31:53;2.92;;;2.83;;
63018;SDS011;49105;46.046;10.760;2023-07-13T12:34:30;3.25;;;3.15;;
63018;SDS011;49105;46.046;10.760;2023-07-13T12:37:08;3.35;;;3.25;;
63018;SDS011;49105;46.046;10.760;2023-07-13T12:39:46;2.70;;;2.60;;
63018;SDS011;49105;46.046;10.760;2023-07-13T12:42:24;3.03;;;2.92;;
63018;SDS011;49105;46.046;10.760;2023-07-13T12:44:58;3.50;;;3.40;;
63018;SDS011;49105;46.046;10.760;2023-07-13T12:47:27;3.33;;;3.15;;
63018;SDS011;49105;46.046;10.760;2023-07-13T12:49:57;2.92;;;2.83;;
63018;SDS011;49105;46.046;10.760;2023-07-13T12:52:35;3.05;;;2.95;;
63018;SDS011;49105;46.046;10.760;2023-07-13T12:55:14;3.88;;;3.00;;
63018;SDS011;49105;46.046;10.760;2023-07-13T12:57:50;3.28;;;3.17;;
63018;SDS011;49105;46.046;10.760;2023-07-13T13:02:51;2.80;;;2.70;;
63018;SDS011;49105;46.046;10.760;2023-07-13T13:05:27;2.80;;;2.70;;
63018;SDS011;49105;46.046;10.760;2023-07-13T13:08:00;2.20;;;2.20;;
63018;SDS011;49105;46.046;10.760;2023-07-13T13:10:26;2.40;;;2.40;;
63018;SDS011;49105;46.046;10.760;2023-07-13T13:12:52;2.10;;;2.10;;
63018;SDS011;49105;46.046;10.760;2023-07-13T13:15:17;2.60;;;2.50;;
63018;SDS011;49105;46.046;10.760;2023-07-13T13:17:43;2.70;;;2.50;;
63018;SDS011;49105;46.046;10.760;2023-07-13T13:20:15;2.10;;;2.00;;
63018;SDS011;49105;46.046;10.760;2023-07-13T13:22:44;2.00;;;2.00;;
63018;SDS011;49105;46.046;10.760;2023-07-13T13:25:11;2.20;;;2.20;;
63018;SDS011;49105;46.046;10.760;2023-07-13T13:27:44;1.98;;;1.95;;
63018;SDS011;49105;46.046;10.760;2023-07-13T13:30:15;2.42;;;2.33;;
63018;SDS011;49105;46.046;10.760;2023-07-13T13:32:42;2.03;;;2.03;;
63018;SDS011;49105;46.046;10.760;2023-07-13T13:35:13;2.72;;;2.53;;
63018;SDS011;49105;46.046;10.760;2023-07-13T13:37:43;2.35;;;2.33;;
63018;SDS011;49105;46.046;10.760;2023-07-13T13:40:20;3.30;;;3.03;;
63018;SDS011;49105;46.046;10.760;2023-07-13T13:42:51;2.08;;;2.08;;
63018;SDS011;49105;46.046;10.760;2023-07-13T13:45:18;2.20;;;2.20;;
63018;SDS011;49105;46.046;10.760;2023-07-13T13:47:55;2.67;;;2.58;;
63018;SDS011;49105;46.046;10.760;2023-07-13T13:50:21;2.58;;;2.47;;
63018;SDS011;49105;46.046;10.760;2023-07-13T13:52:52;2.20;;;2.20;;
63018;SDS011;49105;46.046;10.760;2023-07-13T14:04:02;2.08;;;2.08;;
63018;SDS011;49105;46.046;10.760;2023-07-13T14:06:28;3.25;;;2.55;;
63018;SDS011;49105;46.046;10.760;2023-07-13T14:08:54;2.67;;;2.58;;
63018;SDS011;49105;46.046;10.760;2023-07-13T14:11:20;3.13;;;2.92;;
63018;SDS011;49105;46.046;10.760;2023-07-13T14:13:54;2.30;;;2.20;;
63018;SDS011;49105;46.046;10.760;2023-07-13T14:16:29;2.00;;;2.00;;
63018;SDS011;49105;46.046;10.760;2023-07-13T14:19:15;2.78;;;2.67;;
63018;SDS011;49105;46.046;10.760;2023-07-13T14:21:40;2.63;;;2.53;;
63018;SDS011;49105;46.046;10.760;2023-07-13T14:24:06;2.45;;;2.45;;
63018;SDS011;49105;46.046;10.760;2023-07-13T14:26:34;2.70;;;2.60;;
63018;SDS011;49105;46.046;10.760;2023-07-13T14:29:14;2.40;;;2.40;;
63018;SDS011;49105;46.046;10.760;2023-07-13T14:31:42;2.92;;;2.83;;
63018;SDS011;49105;46.046;10.760;2023-07-13T14:34:21;3.15;;;3.05;;
63018;SDS011;49105;46.046;10.760;2023-07-13T14:36:48;2.92;;;2.83;;
63018;SDS011;49105;46.046;10.760;2023-07-13T14:39:15;3.10;;;3.00;;
63018;SDS011;49105;46.046;10.760;2023-07-13T14:41:43;3.22;;;2.90;;
63018;SDS011;49105;46.046;10.760;2023-07-13T14:44:13;3.03;;;2.92;;
63018;SDS011;49105;46.046;10.760;2023-07-13T14:46:40;2.20;;;2.20;;
63018;SDS011;49105;46.046;10.760;2023-07-13T14:51:56;2.70;;;2.60;;
63018;SDS011;49105;46.046;10.760;2023-07-13T14:54:23;3.10;;;3.00;;
63018;SDS011;49105;46.046;10.760;2023-07-13T14:56:49;3.40;;;3.30;;
63018;SDS011;49105;46.046;10.760;2023-07-13T14:59:25;2.80;;;2.70;;
63018;SDS011;49105;46.046;10.760;2023-07-13T15:01:56;3.17;;;3.08;;
63018;SDS011;49105;46.046;10.760;2023-07-13T15:04:29;2.90;;;2.80;;
63018;SDS011;49105;46.046;10.760;2023-07-13T15:07:04;2.63;;;2.53;;
63018;SDS011;49105;46.046;10.760;2023-07-13T15:09:38;2.80;;;2.70;;
63018;SDS011;49105;46.046;10.760;2023-07-13T15:12:04;2.92;;;2.83;;
63018;SDS011;49105;46.046;10.760;2023-07-13T15:14:30;4.70;;;2.53;;
63018;SDS011;49105;46.046;10.760;2023-07-13T15:17:03;2.95;;;2.85;;
63018;SDS011;49105;46.046;10.760;2023-07-13T15:19:30;3.10;;;2.90;;
63018;SDS011;49105;46.046;10.760;2023-07-13T15:22:03;2.13;;;2.03;;
63018;SDS011;49105;46.046;10.760;2023-07-13T15:24:40;2.58;;;2.38;;
63018;SDS011;49105;46.046;10.760;2023-07-13T15:27:10;3.35;;;2.17;;
63018;SDS011;49105;46.046;10.760;2023-07-13T15:29:46;2.80;;;2.60;;
63018;SDS011;49105;46.046;10.760;2023-07-13T15:35:33;2.00;;;1.90;;
63018;SDS011;49105;46.046;10.760;2023-07-13T15:37:59;1.80;;;1.80;;
63018;SDS011;49105;46.046;10.760;2023-07-13T15:40:34;2.47;;;2.35;;
63018;SDS011;49105;46.046;10.760;2023-07-13T15:43:04;2.50;;;2.33;;
63018;SDS011;49105;46.046;10.760;2023-07-13T15:45:38;1.70;;;1.70;;
63018;SDS011;49105;46.046;10.760;2023-07-13T15:50:47;3.03;;;1.80;;
63018;SDS011;49105;46.046;10.760;2023-07-13T15:53:25;2.08;;;2.08;;
63018;SDS011;49105;46.046;10.760;2023-07-13T15:55:55;2.00;;;2.00;;
63018;SDS011;49105;46.046;10.760;2023-07-13T15:58:28;1.70;;;1.70;;
63018;SDS011;49105;46.046;10.760;2023-07-13T16:00:56;1.83;;;1.83;;
63018;SDS011;49105;46.046;10.760;2023-07-13T16:03:31;1.88;;;1.88;;
63018;SDS011;49105;46.046;10.760;2023-07-13T16:05:57;1.70;;;1.70;;
63018;SDS011;49105;46.046;10.760;2023-07-13T16:08:36;1.80;;;1.80;;
63018;SDS011;49105;46.046;10.760;2023-07-13T16:11:19;2.20;;;2.10;;
63018;SDS011;49105;46.046;10.760;2023-07-13T16:13:47;2.22;;;2.00;;
63018;SDS011;49105;46.046;10.760;2023-07-13T16:16:19;2.35;;;2.25;;
63018;SDS011;49105;46.046;10.760;2023-07-13T16:18:45;2.38;;;2.22;;
63018;SDS011;49105;46.046;10.760;2023-07-13T16:21:12;1.63;;;1.63;;
63018;SDS011;49105;46.046;10.760;2023-07-13T16:23:48;2.55;;;2.45;;
63018;SDS011;49105;46.046;10.760;2023-07-13T16:26:25;2.33;;;2.22;;
63018;SDS011;49105;46.046;10.760;2023-07-13T16:28:59;1.70;;;1.70;;
63018;SDS011;49105;46.046;10.760;2023-07-13T16:31:29;2.58;;;2.42;;
63018;SDS011;49105;46.046;10.760;2023-07-13T16:33:59;1.90;;;1.80;;
63018;SDS011;49105;46.046;10.760;2023-07-13T16:36:25;2.85;;;2.75;;
63018;SDS011;49105;46.046;10.760;2023-07-13T16:39:16;1.63;;;1.63;;
63018;SDS011;49105;46.046;10.760;2023-07-13T16:41:52;1.90;;;1.90;;
63018;SDS011;49105;46.046;10.760;2023-07-13T16:44:25;2.00;;;2.00;;
63018;SDS011;49105;46.046;10.760;2023-07-13T16:46:53;2.00;;;2.00;;
63018;SDS011;49105;46.046;10.760;2023-07-13T16:51:48;2.10;;;2.10;;
63018;SDS011;49105;46.046;10.760;2023-07-13T16:54:22;2.95;;;2.85;;
63018;SDS011;49105;46.046;10.760;2023-07-13T16:56:48;2.72;;;2.63;;
63018;SDS011;49105;46.046;10.760;2023-07-13T16:59:21;2.20;;;2.20;;
63018;SDS011;49105;46.046;10.760;2023-07-13T17:01:48;2.67;;;2.58;;
63018;SDS011;49105;46.046;10.760;2023-07-13T17:04:25;2.35;;;2.25;;
63018;SDS011;49105;46.046;10.760;2023-07-13T17:06:52;2.05;;;2.05;;
63018;SDS011;49105;46.046;10.760;2023-07-13T17:12:42;1.83;;;1.83;;
63018;SDS011;49105;46.046;10.760;2023-07-13T17:15:08;1.88;;;1.88;;
63018;SDS011;49105;46.046;10.760;2023-07-13T17:17:34;1.80;;;1.80;;
63018;SDS011;49105;46.046;10.760;2023-07-13T17:20:10;2.60;;;2.50;;
63018;SDS011;49105;46.046;10.760;2023-07-13T17:22:48;2.17;;;2.08;;
63018;SDS011;49105;46.046;10.760;2023-07-13T17:25:28;1.60;;;1.60;;
63018;SDS011;49105;46.046;10.760;2023-07-13T17:27:55;1.67;;;1.67;;
63018;SDS011;49105;46.046;10.760;2023-07-13T17:30:42;2.47;;;2.38;;
63018;SDS011;49105;46.046;10.760;2023-07-13T17:33:25;1.70;;;1.60;;
63018;SDS011;49105;46.046;10.760;2023-07-13T17:35:52;2.20;;;2.10;;
63018;SDS011;49105;46.046;10.760;2023-07-13T17:38:18;1.90;;;1.88;;
63018;SDS011;49105;46.046;10.760;2023-07-13T17:40:50;2.15;;;2.15;;
63018;SDS011;49105;46.046;10.760;2023-07-13T17:43:16;2.00;;;2.00;;
63018;SDS011;49105;46.046;10.760;2023-07-13T17:45:50;1.83;;;1.83;;
63018;SDS011;49105;46.046;10.760;2023-07-13T17:48:19;2.55;;;2.45;;
63018;SDS011;49105;46.046;10.760;2023-07-13T17:50:45;3.72;;;3.03;;
63018;SDS011;49105;46.046;10.760;2023-07-13T17:53:18;2.00;;;2.00;;
63018;SDS011;49105;46.046;10.760;2023-07-13T17:55:54;2.00;;;2.00;;
63018;SDS011;49105;46.046;10.760;2023-07-13T18:05:12;2.28;;;2.28;;
63018;SDS011;49105;46.046;10.760;2023-07-13T18:07:42;2.30;;;2.30;;
63018;SDS011;49105;46.046;10.760;2023-07-13T18:10:20;2.13;;;2.13;;
63018;SDS011;49105;46.046;10.760;2023-07-13T18:12:51;2.20;;;2.20;;